sensor_id;sensor_type;location;lat;lon;timestamp;pressure;altitude;pressure_sealevel;temperature;humidity
10638;BME280;47007;49.252;8.904;2023-03-14T00:00:24;97945.22;;;11.42;100.00
10638;BME280;47007;49.252;8.904;2023-03-14T00:01:12;97952.13;;;11.43;100.00
10638;BME280;47007;49.252;8.904;2023-03-14T00:01:54;97952.34;;;11.41;100.00
10638;BME280;47007;49.252;8.904;2023-03-14T00:02:35;97958.69;;;11.40;100.00
10638;BME280;47007;49.252;8.904;2023-03-14T00:03:17;97959.97;;;11.38;100.00
10638;BME280;47007;49.252;8.904;2023-03-14T00:03:59;97939.69;;;11.32;100.00
10638;BME280;47007;49.252;8.904;2023-03-14T00:04:41;97959.41;;;11.36;100.00
10638;BME280;47007;49.252;8.904;2023-03-14T00:05:22;97957.31;;;11.38;100.00
10638;BME280;47007;49.252;8.904;2023-03-14T00:06:05;97957.31;;;11.38;100.00
10638;BME280;47007;49.252;8.904;2023-03-14T00:06:47;97947.31;;;11.28;100.00
10638;BME280;47007;49.252;8.904;2023-03-14T00:07:31;97943.38;;;11.31;100.00
10638;BME280;47007;49.252;8.904;2023-03-14T00:08:15;97955.72;;;11.37;100.00
10638;BME280;47007;49.252;8.904;2023-03-14T00:08:57;97961.84;;;11.37;100.00
10638;BME280;47007;49.252;8.904;2023-03-14T00:09:39;97968.50;;;11.40;100.00
10638;BME280;47007;49.252;8.904;2023-03-14T00:10:21;97969.53;;;11.39;100.00
10638;BME280;47007;49.252;8.904;2023-03-14T00:11:06;97965.28;;;11.38;100.00
10638;BME280;47007;49.252;8.904;2023-03-14T00:11:48;97967.38;;;11.36;100.00
10638;BME280;47007;49.252;8.904;2023-03-14T00:12:31;97973.22;;;11.38;100.00
10638;BME280;47007;49.252;8.904;2023-03-14T00:13:13;97972.44;;;11.37;100.00
10638;BME280;47007;49.252;8.904;2023-03-14T00:13:54;97957.09;;;11.28;100.00
10638;BME280;47007;49.252;8.904;2023-03-14T00:14:36;97956.66;;;11.31;100.00
10638;BME280;47007;49.252;8.904;2023-03-14T00:15:18;97957.09;;;11.28;100.00
10638;BME280;47007;49.252;8.904;2023-03-14T00:16:04;97967.38;;;11.36;100.00
10638;BME280;47007;49.252;8.904;2023-03-14T00:16:47;97964.25;;;11.39;100.00
10638;BME280;47007;49.252;8.904;2023-03-14T00:17:29;97939.50;;;11.22;100.00
10638;BME280;47007;49.252;8.904;2023-03-14T00:18:11;97972.53;;;11.42;100.00
10638;BME280;47007;49.252;8.904;2023-03-14T00:18:52;97971.75;;;11.42;100.00
10638;BME280;47007;49.252;8.904;2023-03-14T00:19:34;97975.19;;;11.42;100.00
10638;BME280;47007;49.252;8.904;2023-03-14T00:20:16;97977.63;;;11.44;100.00
10638;BME280;47007;49.252;8.904;2023-03-14T00:20:59;97973.94;;;11.45;100.00
10638;BME280;47007;49.252;8.904;2023-03-14T00:21:40;97976.81;;;11.43;100.00
10638;BME280;47007;49.252;8.904;2023-03-14T00:22:22;97987.44;;;11.43;100.00
10638;BME280;47007;49.252;8.904;2023-03-14T00:23:04;97984.78;;;11.43;100.00
10638;BME280;47007;49.252;8.904;2023-03-14T00:23:45;97979.34;;;11.38;100.00
10638;BME280;47007;49.252;8.904;2023-03-14T00:24:27;97985.00;;;11.42;100.00
10638;BME280;47007;49.252;8.904;2023-03-14T00:25:10;97972.69;;;11.36;100.00
10638;BME280;47007;49.252;8.904;2023-03-14T00:25:52;97975.19;;;11.42;100.00
10638;BME280;47007;49.252;8.904;2023-03-14T00:26:34;97987.19;;;11.45;100.00
10638;BME280;47007;49.252;8.904;2023-03-14T00:27:16;97983.16;;;11.42;100.00
10638;BME280;47007;49.252;8.904;2023-03-14T00:27:58;97990.66;;;11.45;100.00
10638;BME280;47007;49.252;8.904;2023-03-14T00:28:40;97985.81;;;11.42;100.00
10638;BME280;47007;49.252;8.904;2023-03-14T00:29:23;97986.84;;;11.41;100.00
10638;BME280;47007;49.252;8.904;2023-03-14T00:30:05;97973.94;;;11.33;100.00
10638;BME280;47007;49.252;8.904;2023-03-14T00:30:49;97989.97;;;11.38;100.00
10638;BME280;47007;49.252;8.904;2023-03-14T00:31:30;97997.38;;;11.36;100.00
10638;BME280;47007;49.252;8.904;2023-03-14T00:32:12;97995.53;;;11.37;100.00
10638;BME280;47007;49.252;8.904;2023-03-14T00:32:54;97975.91;;;11.26;100.00
10638;BME280;47007;49.252;8.904;2023-03-14T00:33:36;97980.28;;;11.32;100.00
10638;BME280;47007;49.252;8.904;2023-03-14T00:34:18;97983.06;;;11.37;100.00
10638;BME280;47007;49.252;8.904;2023-03-14T00:35:00;97963.44;;;11.27;100.00
10638;BME280;47007;49.252;8.904;2023-03-14T00:35:42;97968.41;;;11.35;100.00
10638;BME280;47007;49.252;8.904;2023-03-14T00:36:24;97970.13;;;11.41;100.00
10638;BME280;47007;49.252;8.904;2023-03-14T00:37:05;97956.78;;;11.36;100.00
10638;BME280;47007;49.252;8.904;2023-03-14T00:37:47;97971.38;;;11.50;100.00
10638;BME280;47007;49.252;8.904;2023-03-14T00:38:30;97961.00;;;11.48;100.00
10638;BME280;47007;49.252;8.904;2023-03-14T00:39:12;97965.38;;;11.55;100.00
10638;BME280;47007;49.252;8.904;2023-03-14T00:39:53;97958.81;;;11.45;100.00
10638;BME280;47007;49.252;8.904;2023-03-14T00:40:39;97964.13;;;11.45;100.00
10638;BME280;47007;49.252;8.904;2023-03-14T00:41:22;97974.38;;;11.53;100.00
10638;BME280;47007;49.252;8.904;2023-03-14T00:42:04;97973.31;;;11.55;100.00
10638;BME280;47007;49.252;8.904;2023-03-14T00:42:46;97979.44;;;11.55;100.00
10638;BME280;47007;49.252;8.904;2023-03-14T00:43:27;97975.41;;;11.52;100.00
10638;BME280;47007;49.252;8.904;2023-03-14T00:44:09;97971.38;;;11.50;100.00
10638;BME280;47007;49.252;8.904;2023-03-14T00:44:50;97979.09;;;11.51;100.00
10638;BME280;47007;49.252;8.904;2023-03-14T00:45:32;97933.25;;;11.28;100.00
10638;BME280;47007;49.252;8.904;2023-03-14T00:46:14;97980.25;;;11.56;100.00
10638;BME280;47007;49.252;8.904;2023-03-14T00:46:57;97957.56;;;11.48;100.00
10638;BME280;47007;49.252;8.904;2023-03-14T00:47:39;97965.94;;;11.57;100.00
10638;BME280;47007;49.252;8.904;2023-03-14T00:48:22;97973.66;;;11.58;100.00
10638;BME280;47007;49.252;8.904;2023-03-14T00:49:03;97958.91;;;11.50;100.00
10638;BME280;47007;49.252;8.904;2023-03-14T00:49:45;97949.00;;;11.46;100.00
10638;BME280;47007;49.252;8.904;2023-03-14T00:50:27;97969.50;;;11.62;100.00
10638;BME280;47007;49.252;8.904;2023-03-14T00:51:09;97964.44;;;11.61;100.00
10638;BME280;47007;49.252;8.904;2023-03-14T00:51:51;97960.88;;;11.55;100.00
10638;BME280;47007;49.252;8.904;2023-03-14T00:52:33;97975.06;;;11.61;100.00
10638;BME280;47007;49.252;8.904;2023-03-14T00:53:15;97962.59;;;11.61;100.00
10638;BME280;47007;49.252;8.904;2023-03-14T00:53:57;97906.94;;;11.26;100.00
10638;BME280;47007;49.252;8.904;2023-03-14T00:54:38;97969.50;;;11.62;100.00
10638;BME280;47007;49.252;8.904;2023-03-14T00:55:20;97943.78;;;11.51;100.00
10638;BME280;47007;49.252;8.904;2023-03-14T00:56:03;97933.78;;;11.41;100.00
10638;BME280;47007;49.252;8.904;2023-03-14T00:56:45;97955.69;;;11.60;100.00
10638;BME280;47007;49.252;8.904;2023-03-14T00:57:27;97962.81;;;11.60;100.00
10638;BME280;47007;49.252;8.904;2023-03-14T00:58:12;97963.88;;;11.59;100.00
10638;BME280;47007;49.252;8.904;2023-03-14T00:58:55;97961.44;;;11.57;100.00
10638;BME280;47007;49.252;8.904;2023-03-14T00:59:37;97928.41;;;11.36;100.00
10638;BME280;47007;49.252;8.904;2023-03-14T01:00:19;97971.72;;;11.53;100.00
10638;BME280;47007;49.252;8.904;2023-03-14T01:01:09;97970.31;;;11.51;100.00
10638;BME280;47007;49.252;8.904;2023-03-14T01:01:51;97860.94;;;10.80;100.00
10638;BME280;47007;49.252;8.904;2023-03-14T01:02:33;97960.09;;;11.43;100.00
10638;BME280;47007;49.252;8.904;2023-03-14T01:03:15;97970.25;;;11.46;100.00
10638;BME280;47007;49.252;8.904;2023-03-14T01:03:57;97972.31;;;11.44;100.00
10638;BME280;47007;49.252;8.904;2023-03-14T01:04:39;97976.00;;;11.43;100.00
10638;BME280;47007;49.252;8.904;2023-03-14T01:05:22;97971.97;;;11.40;100.00
10638;BME280;47007;49.252;8.904;2023-03-14T01:06:13;97975.88;;;11.38;100.00
10638;BME280;47007;49.252;8.904;2023-03-14T01:06:56;97969.81;;;11.37;100.00
10638;BME280;47007;49.252;8.904;2023-03-14T01:07:38;97947.91;;;11.19;100.00
10638;BME280;47007;49.252;8.904;2023-03-14T01:08:20;97969.44;;;11.34;100.00
10638;BME280;47007;49.252;8.904;2023-03-14T01:09:01;97977.41;;;11.34;100.00
10638;BME280;47007;49.252;8.904;2023-03-14T01:09:44;97970.94;;;11.30;100.00
10638;BME280;47007;49.252;8.904;2023-03-14T01:10:25;97967.84;;;11.21;100.00
10638;BME280;47007;49.252;8.904;2023-03-14T01:11:09;97964.97;;;11.23;100.00
10638;BME280;47007;49.252;8.904;2023-03-14T01:11:51;97976.94;;;11.25;100.00
10638;BME280;47007;49.252;8.904;2023-03-14T01:12:33;97986.75;;;11.25;100.00
10638;BME280;47007;49.252;8.904;2023-03-14T01:13:16;97966.13;;;11.15;100.00
10638;BME280;47007;49.252;8.904;2023-03-14T01:13:58;97965.91;;;11.05;100.00
10638;BME280;47007;49.252;8.904;2023-03-14T01:14:42;97981.34;;;11.20;100.00
10638;BME280;47007;49.252;8.904;2023-03-14T01:15:24;97979.16;;;11.16;100.00
10638;BME280;47007;49.252;8.904;2023-03-14T01:16:08;97971.66;;;11.13;100.00
10638;BME280;47007;49.252;8.904;2023-03-14T01:16:51;97973.25;;;11.14;100.00
10638;BME280;47007;49.252;8.904;2023-03-14T01:17:34;97969.72;;;11.09;100.00
10638;BME280;47007;49.252;8.904;2023-03-14T01:18:16;97884.22;;;10.55;100.00
10638;BME280;47007;49.252;8.904;2023-03-14T01:18:57;97974.78;;;11.10;100.00
10638;BME280;47007;49.252;8.904;2023-03-14T01:19:39;97970.97;;;11.06;100.00
10638;BME280;47007;49.252;8.904;2023-03-14T01:20:20;97971.56;;;11.08;100.00
10638;BME280;47007;49.252;8.904;2023-03-14T01:21:27;97976.03;;;11.08;100.00
10638;BME280;47007;49.252;8.904;2023-03-14T01:22:09;97956.47;;;10.97;100.00
10638;BME280;47007;49.252;8.904;2023-03-14T01:22:52;97974.19;;;11.08;100.00
10638;BME280;47007;49.252;8.904;2023-03-14T01:23:33;97982.16;;;11.08;100.00
10638;BME280;47007;49.252;8.904;2023-03-14T01:24:15;97973.41;;;11.08;100.00
10638;BME280;47007;49.252;8.904;2023-03-14T01:24:57;97972.59;;;11.07;100.00
10638;BME280;47007;49.252;8.904;2023-03-14T01:25:41;97940.78;;;10.96;100.00
10638;BME280;47007;49.252;8.904;2023-03-14T01:26:25;97958.28;;;11.08;100.00
10638;BME280;47007;49.252;8.904;2023-03-14T01:27:07;97964.19;;;11.10;100.00
10638;BME280;47007;49.252;8.904;2023-03-14T01:27:48;97961.53;;;11.10;100.00
10638;BME280;47007;49.252;8.904;2023-03-14T01:28:30;97947.78;;;11.02;100.00
10638;BME280;47007;49.252;8.904;2023-03-14T01:29:12;97947.56;;;11.03;100.00
10638;BME280;47007;49.252;8.904;2023-03-14T01:29:54;97954.69;;;11.14;100.00
10638;BME280;47007;49.252;8.904;2023-03-14T01:30:36;97957.34;;;11.14;100.00
10638;BME280;47007;49.252;8.904;2023-03-14T01:31:18;97953.09;;;11.13;100.00
10638;BME280;47007;49.252;8.904;2023-03-14T01:32:00;97960.59;;;11.16;100.00
10638;BME280;47007;49.252;8.904;2023-03-14T01:32:42;97947.31;;;11.16;100.00
10638;BME280;47007;49.252;8.904;2023-03-14T01:33:23;97954.69;;;11.14;100.00
10638;BME280;47007;49.252;8.904;2023-03-14T01:34:05;97893.75;;;10.79;100.00
10638;BME280;47007;49.252;8.904;2023-03-14T01:34:47;97925.78;;;11.01;100.00
10638;BME280;47007;49.252;8.904;2023-03-14T01:35:29;97926.94;;;11.05;100.00
10638;BME280;47007;49.252;8.904;2023-03-14T01:36:11;97940.09;;;11.12;100.00
10638;BME280;47007;49.252;8.904;2023-03-14T01:36:54;97919.44;;;11.02;100.00
10638;BME280;47007;49.252;8.904;2023-03-14T01:37:36;97927.16;;;11.15;100.00
10638;BME280;47007;49.252;8.904;2023-03-14T01:38:20;97873.59;;;10.78;100.00
10638;BME280;47007;49.252;8.904;2023-03-14T01:39:03;97922.88;;;11.14;100.00
10638;BME280;47007;49.252;8.904;2023-03-14T01:39:47;97919.19;;;11.15;100.00
10638;BME280;47007;49.252;8.904;2023-03-14T01:40:29;97908.50;;;11.10;100.00
10638;BME280;47007;49.252;8.904;2023-03-14T01:41:29;97917.34;;;11.16;100.00
10638;BME280;47007;49.252;8.904;2023-03-14T01:42:13;97911.25;;;11.15;100.00
10638;BME280;47007;49.252;8.904;2023-03-14T01:43:05;97908.81;;;11.14;100.00
10638;BME280;47007;49.252;8.904;2023-03-14T01:43:48;97904.31;;;11.14;100.00
10638;BME280;47007;49.252;8.904;2023-03-14T01:44:56;97909.63;;;11.14;100.00
10638;BME280;47007;49.252;8.904;2023-03-14T01:46:43;97910.19;;;11.16;100.00
10638;BME280;47007;49.252;8.904;2023-03-14T01:47:26;97913.81;;;11.10;100.00
10638;BME280;47007;49.252;8.904;2023-03-14T01:48:09;97910.78;;;11.19;100.00
10638;BME280;47007;49.252;8.904;2023-03-14T01:48:58;97913.19;;;11.20;100.00
10638;BME280;47007;49.252;8.904;2023-03-14T01:49:41;97914.00;;;11.21;100.00
10638;BME280;47007;49.252;8.904;2023-03-14T01:50:25;97892.69;;;11.15;100.00
10638;BME280;47007;49.252;8.904;2023-03-14T01:51:11;97904.78;;;11.23;100.00
10638;BME280;47007;49.252;8.904;2023-03-14T01:52:44;97894.06;;;11.18;100.00
10638;BME280;47007;49.252;8.904;2023-03-14T01:53:28;97889.72;;;11.12;100.00
10638;BME280;47007;49.252;8.904;2023-03-14T01:55:13;97898.44;;;11.24;100.00
10638;BME280;47007;49.252;8.904;2023-03-14T01:55:57;97895.78;;;11.24;100.00
10638;BME280;47007;49.252;8.904;2023-03-14T01:56:40;97890.50;;;11.24;100.00
10638;BME280;47007;49.252;8.904;2023-03-14T01:58:09;97891.28;;;11.25;100.00
10638;BME280;47007;49.252;8.904;2023-03-14T01:58:51;97886.69;;;11.20;100.00
10638;BME280;47007;49.252;8.904;2023-03-14T01:59:34;97862.38;;;11.11;100.00
10638;BME280;47007;49.252;8.904;2023-03-14T02:00:21;97881.63;;;11.19;100.00
10638;BME280;47007;49.252;8.904;2023-03-14T02:01:04;97882.31;;;11.14;100.00
10638;BME280;47007;49.252;8.904;2023-03-14T02:01:47;97868.63;;;11.05;100.00
10638;BME280;47007;49.252;8.904;2023-03-14T02:02:30;97889.00;;;11.16;100.00
10638;BME280;47007;49.252;8.904;2023-03-14T02:03:16;97879.56;;;11.09;100.00
10638;BME280;47007;49.252;8.904;2023-03-14T02:04:01;97865.63;;;11.02;100.00
10638;BME280;47007;49.252;8.904;2023-03-14T02:04:45;97896.38;;;11.14;100.00
10638;BME280;47007;49.252;8.904;2023-03-14T02:05:32;97896.94;;;11.16;100.00
10638;BME280;47007;49.252;8.904;2023-03-14T02:06:38;97901.22;;;11.18;100.00
10638;BME280;47007;49.252;8.904;2023-03-14T02:07:36;97825.09;;;10.78;100.00
10638;BME280;47007;49.252;8.904;2023-03-14T02:08:26;97854.34;;;10.95;100.00
10638;BME280;47007;49.252;8.904;2023-03-14T02:09:13;97880.03;;;11.06;100.00
10638;BME280;47007;49.252;8.904;2023-03-14T02:09:56;97896.28;;;11.09;100.00
10638;BME280;47007;49.252;8.904;2023-03-14T02:10:47;97887.53;;;11.09;100.00
10638;BME280;47007;49.252;8.904;2023-03-14T02:11:34;97887.75;;;11.07;100.00
10638;BME280;47007;49.252;8.904;2023-03-14T02:12:20;97882.44;;;11.07;100.00
10638;BME280;47007;49.252;8.904;2023-03-14T02:13:19;97892.91;;;11.14;100.00
10638;BME280;47007;49.252;8.904;2023-03-14T02:14:25;97877.56;;;11.16;100.00
10638;BME280;47007;49.252;8.904;2023-03-14T02:15:27;97886.09;;;11.18;100.00
10638;BME280;47007;49.252;8.904;2023-03-14T02:16:32;97864.47;;;11.09;100.00
10638;BME280;47007;49.252;8.904;2023-03-14T02:17:20;97872.63;;;11.20;100.00
10638;BME280;47007;49.252;8.904;2023-03-14T02:18:19;97866.09;;;11.10;100.00
10638;BME280;47007;49.252;8.904;2023-03-14T02:19:14;97872.16;;;11.23;100.00
10638;BME280;47007;49.252;8.904;2023-03-14T02:20:27;97870.16;;;11.30;100.00
10638;BME280;47007;49.252;8.904;2023-03-14T02:21:35;97871.78;;;11.31;100.00
10638;BME280;47007;49.252;8.904;2023-03-14T02:22:20;97843.91;;;11.16;100.00
10638;BME280;47007;49.252;8.904;2023-03-14T02:23:23;97867.28;;;11.31;100.00
10638;BME280;47007;49.252;8.904;2023-03-14T02:24:20;97858.06;;;11.34;100.00
10638;BME280;47007;49.252;8.904;2023-03-14T02:26:34;97861.50;;;11.34;100.00
10638;BME280;47007;49.252;8.904;2023-03-14T02:27:19;97861.50;;;11.34;100.00
10638;BME280;47007;49.252;8.904;2023-03-14T02:28:01;97868.66;;;11.34;100.00
10638;BME280;47007;49.252;8.904;2023-03-14T02:28:43;97866.25;;;11.32;100.00
10638;BME280;47007;49.252;8.904;2023-03-14T02:29:25;97860.13;;;11.32;100.00
10638;BME280;47007;49.252;8.904;2023-03-14T02:30:22;97866.47;;;11.31;100.00
10638;BME280;47007;49.252;8.904;2023-03-14T02:31:04;97865.00;;;11.23;100.00
10638;BME280;47007;49.252;8.904;2023-03-14T02:31:48;97870.63;;;11.27;100.00
10638;BME280;47007;49.252;8.904;2023-03-14T02:32:33;97862.34;;;11.23;100.00
10638;BME280;47007;49.252;8.904;2023-03-14T02:33:18;97856.09;;;11.29;100.00
10638;BME280;47007;49.252;8.904;2023-03-14T02:34:01;97852.63;;;11.29;100.00
10638;BME280;47007;49.252;8.904;2023-03-14T02:34:45;97853.63;;;11.39;100.00
10638;BME280;47007;49.252;8.904;2023-03-14T02:35:50;97843.75;;;11.35;100.00
10638;BME280;47007;49.252;8.904;2023-03-14T02:36:34;97840.16;;;11.41;100.00
10638;BME280;47007;49.252;8.904;2023-03-14T02:37:17;97835.41;;;11.43;100.00
10638;BME280;47007;49.252;8.904;2023-03-14T02:38:07;97847.16;;;11.47;100.00
10638;BME280;47007;49.252;8.904;2023-03-14T02:39:11;97828.72;;;11.40;100.00
10638;BME280;47007;49.252;8.904;2023-03-14T02:39:57;97824.91;;;11.48;100.00
10638;BME280;47007;49.252;8.904;2023-03-14T02:40:40;97766.03;;;11.06;100.00
10638;BME280;47007;49.252;8.904;2023-03-14T02:41:22;97826.88;;;11.41;100.00
10638;BME280;47007;49.252;8.904;2023-03-14T02:42:13;97814.25;;;11.31;100.00
10638;BME280;47007;49.252;8.904;2023-03-14T02:42:55;97833.00;;;11.41;100.00
10638;BME280;47007;49.252;8.904;2023-03-14T02:43:37;97841.38;;;11.50;100.00
10638;BME280;47007;49.252;8.904;2023-03-14T02:44:23;97843.25;;;11.49;100.00
10638;BME280;47007;49.252;8.904;2023-03-14T02:45:50;97834.38;;;11.44;100.00
10638;BME280;47007;49.252;8.904;2023-03-14T02:46:34;97846.94;;;11.48;100.00
10638;BME280;47007;49.252;8.904;2023-03-14T02:47:16;97850.72;;;11.52;100.00
10638;BME280;47007;49.252;8.904;2023-03-14T02:48:03;97846.78;;;11.55;100.00
10638;BME280;47007;49.252;8.904;2023-03-14T02:48:58;97848.06;;;11.52;100.00
10638;BME280;47007;49.252;8.904;2023-03-14T02:49:45;97829.53;;;11.41;100.00
10638;BME280;47007;49.252;8.904;2023-03-14T02:50:30;97849.91;;;11.52;100.00
10638;BME280;47007;49.252;8.904;2023-03-14T02:51:15;97847.00;;;11.53;100.00
10638;BME280;47007;49.252;8.904;2023-03-14T02:52:00;97838.63;;;11.45;100.00
10638;BME280;47007;49.252;8.904;2023-03-14T02:52:42;97828.72;;;11.40;100.00
10638;BME280;47007;49.252;8.904;2023-03-14T02:53:27;97847.25;;;11.52;100.00
10638;BME280;47007;49.252;8.904;2023-03-14T02:54:11;97845.63;;;11.51;100.00
10638;BME280;47007;49.252;8.904;2023-03-14T02:54:53;97821.34;;;11.42;100.00
10638;BME280;47007;49.252;8.904;2023-03-14T02:55:35;97837.13;;;11.49;100.00
10638;BME280;47007;49.252;8.904;2023-03-14T02:56:22;97838.41;;;11.46;100.00
10638;BME280;47007;49.252;8.904;2023-03-14T02:57:04;97833.47;;;11.38;100.00
10638;BME280;47007;49.252;8.904;2023-03-14T02:57:46;97812.53;;;11.25;100.00
10638;BME280;47007;49.252;8.904;2023-03-14T02:58:28;97828.66;;;11.35;100.00
10638;BME280;47007;49.252;8.904;2023-03-14T02:59:17;97817.69;;;11.32;100.00
10638;BME280;47007;49.252;8.904;2023-03-14T03:00:04;97838.63;;;11.45;100.00
10638;BME280;47007;49.252;8.904;2023-03-14T03:00:49;97842.44;;;11.49;100.00
10638;BME280;47007;49.252;8.904;2023-03-14T03:01:33;97841.63;;;11.48;100.00
10638;BME280;47007;49.252;8.904;2023-03-14T03:02:15;97834.84;;;11.41;100.00
10638;BME280;47007;49.252;8.904;2023-03-14T03:02:56;97840.72;;;11.43;100.00
10638;BME280;47007;49.252;8.904;2023-03-14T03:03:38;97838.53;;;11.40;100.00
10638;BME280;47007;49.252;8.904;2023-03-14T03:04:20;97840.38;;;11.39;100.00
10638;BME280;47007;49.252;8.904;2023-03-14T03:05:01;97841.41;;;11.38;100.00
10638;BME280;47007;49.252;8.904;2023-03-14T03:05:48;97824.28;;;11.29;100.00
10638;BME280;47007;49.252;8.904;2023-03-14T03:06:30;97837.88;;;11.33;100.00
10638;BME280;47007;49.252;8.904;2023-03-14T03:07:11;97832.56;;;11.33;100.00
10638;BME280;47007;49.252;8.904;2023-03-14T03:07:53;97820.06;;;11.16;100.00
10638;BME280;47007;49.252;8.904;2023-03-14T03:08:35;97824.44;;;11.23;100.00
10638;BME280;47007;49.252;8.904;2023-03-14T03:09:16;97838.56;;;11.28;100.00
10638;BME280;47007;49.252;8.904;2023-03-14T03:09:58;97837.75;;;11.28;100.00
10638;BME280;47007;49.252;8.904;2023-03-14T03:10:40;97838.56;;;11.28;100.00
10638;BME280;47007;49.252;8.904;2023-03-14T03:11:22;97842.03;;;11.29;100.00
10638;BME280;47007;49.252;8.904;2023-03-14T03:12:03;97834.06;;;11.29;100.00
10638;BME280;47007;49.252;8.904;2023-03-14T03:12:46;97774.06;;;10.83;100.00
10638;BME280;47007;49.252;8.904;2023-03-14T03:13:27;97830.00;;;11.38;100.00
10638;BME280;47007;49.252;8.904;2023-03-14T03:14:11;97775.59;;;11.07;100.00
10638;BME280;47007;49.252;8.904;2023-03-14T03:14:52;97833.00;;;11.41;100.00
10638;BME280;47007;49.252;8.904;2023-03-14T03:15:34;97830.50;;;11.35;100.00
10638;BME280;47007;49.252;8.904;2023-03-14T03:16:16;97825.66;;;11.32;100.00
10638;BME280;47007;49.252;8.904;2023-03-14T03:16:57;97839.03;;;11.37;100.00
10638;BME280;47007;49.252;8.904;2023-03-14T03:17:39;97831.53;;;11.34;100.00
10638;BME280;47007;49.252;8.904;2023-03-14T03:18:21;97809.78;;;11.20;100.00
10638;BME280;47007;49.252;8.904;2023-03-14T03:19:02;97824.84;;;11.31;100.00
10638;BME280;47007;49.252;8.904;2023-03-14T03:19:44;97824.28;;;11.29;100.00
10638;BME280;47007;49.252;8.904;2023-03-14T03:20:26;97819.19;;;11.28;100.00
10638;BME280;47007;49.252;8.904;2023-03-14T03:21:07;97822.25;;;11.20;100.00
10638;BME280;47007;49.252;8.904;2023-03-14T03:21:50;97830.78;;;11.22;100.00
10638;BME280;47007;49.252;8.904;2023-03-14T03:22:32;97809.38;;;11.11;100.00
10638;BME280;47007;49.252;8.904;2023-03-14T03:23:16;97826.50;;;11.21;100.00
10638;BME280;47007;49.252;8.904;2023-03-14T03:23:57;97814.06;;;11.21;100.00
10638;BME280;47007;49.252;8.904;2023-03-14T03:24:39;97827.53;;;11.20;100.00
10638;BME280;47007;49.252;8.904;2023-03-14T03:25:21;97819.00;;;11.18;100.00
10638;BME280;47007;49.252;8.904;2023-03-14T03:26:04;97806.22;;;11.14;100.00
10638;BME280;47007;49.252;8.904;2023-03-14T03:26:46;97811.53;;;11.14;100.00
10638;BME280;47007;49.252;8.904;2023-03-14T03:27:30;97799.31;;;11.13;100.00
10638;BME280;47007;49.252;8.904;2023-03-14T03:28:13;97725.34;;;10.72;100.00
10638;BME280;47007;49.252;8.904;2023-03-14T03:28:54;97815.09;;;11.20;100.00
10638;BME280;47007;49.252;8.904;2023-03-14T03:29:37;97785.28;;;11.01;100.00
10638;BME280;47007;49.252;8.904;2023-03-14T03:30:19;97813.72;;;11.18;100.00
10638;BME280;47007;49.252;8.904;2023-03-14T03:31:09;97810.59;;;11.21;100.00
10638;BME280;47007;49.252;8.904;2023-03-14T03:31:52;97787.34;;;11.11;100.00
10638;BME280;47007;49.252;8.904;2023-03-14T03:32:34;97805.38;;;11.26;100.00
10638;BME280;47007;49.252;8.904;2023-03-14T03:33:16;97800.56;;;11.23;100.00
10638;BME280;47007;49.252;8.904;2023-03-14T03:33:59;97799.53;;;11.24;100.00
10638;BME280;47007;49.252;8.904;2023-03-14T03:34:41;97789.97;;;11.23;100.00
10638;BME280;47007;49.252;8.904;2023-03-14T03:35:23;97804.25;;;11.22;100.00
10638;BME280;47007;49.252;8.904;2023-03-14T03:36:06;97806.34;;;11.20;100.00
10638;BME280;47007;49.252;8.904;2023-03-14T03:36:50;97815.66;;;11.22;100.00
10638;BME280;47007;49.252;8.904;2023-03-14T03:37:33;97787.81;;;11.08;100.00
10638;BME280;47007;49.252;8.904;2023-03-14T03:38:16;97802.63;;;11.21;100.00
10638;BME280;47007;49.252;8.904;2023-03-14T03:38:59;97804.72;;;11.19;100.00
10638;BME280;47007;49.252;8.904;2023-03-14T03:39:41;97781.13;;;11.05;100.00
10638;BME280;47007;49.252;8.904;2023-03-14T03:40:24;97799.41;;;11.19;100.00
10638;BME280;47007;49.252;8.904;2023-03-14T03:41:06;97798.59;;;11.18;100.00
10638;BME280;47007;49.252;8.904;2023-03-14T03:41:49;97795.63;;;11.14;100.00
10638;BME280;47007;49.252;8.904;2023-03-14T03:42:31;97806.09;;;11.21;100.00
10638;BME280;47007;49.252;8.904;2023-03-14T03:43:14;97801.59;;;11.22;100.00
10638;BME280;47007;49.252;8.904;2023-03-14T03:43:58;97794.34;;;11.17;100.00
10638;BME280;47007;49.252;8.904;2023-03-14T03:44:39;97682.56;;;10.52;100.00
10638;BME280;47007;49.252;8.904;2023-03-14T03:45:23;97790.88;;;11.16;100.00
10638;BME280;47007;49.252;8.904;2023-03-14T03:46:09;97784.81;;;11.04;100.00
10638;BME280;47007;49.252;8.904;2023-03-14T03:46:50;97672.25;;;10.38;100.00
10638;BME280;47007;49.252;8.904;2023-03-14T03:47:32;97794.56;;;11.15;100.00
10638;BME280;47007;49.252;8.904;2023-03-14T03:48:14;97796.91;;;11.12;100.00
10638;BME280;47007;49.252;8.904;2023-03-14T03:48:59;97800.09;;;11.14;100.00
10638;BME280;47007;49.252;8.904;2023-03-14T03:49:42;97790.81;;;11.11;100.00
10638;BME280;47007;49.252;8.904;2023-03-14T03:50:25;97799.06;;;11.15;100.00
10638;BME280;47007;49.252;8.904;2023-03-14T03:51:07;97793.56;;;11.05;100.00
10638;BME280;47007;49.252;8.904;2023-03-14T03:51:50;97795.06;;;11.12;100.00
10638;BME280;47007;49.252;8.904;2023-03-14T03:52:32;97806.00;;;11.16;100.00
10638;BME280;47007;49.252;8.904;2023-03-14T03:53:13;97749.63;;;10.80;100.00
10638;BME280;47007;49.252;8.904;2023-03-14T03:54:04;97779.06;;;11.07;100.00
10638;BME280;47007;49.252;8.904;2023-03-14T03:54:47;97804.16;;;11.16;100.00
10638;BME280;47007;49.252;8.904;2023-03-14T03:55:29;97799.41;;;11.19;100.00
10638;BME280;47007;49.252;8.904;2023-03-14T03:56:11;97770.06;;;11.08;100.00
10638;BME280;47007;49.252;8.904;2023-03-14T03:56:54;97791.56;;;11.24;100.00